sensor_id;sensor_type;location;lat;lon;timestamp;pressure;altitude;pressure_sealevel;temperature;humidity
40245;BME280;25963;42.694;23.600;2023-04-12T00:00:30;94220.44;;;7.55;100.00
40245;BME280;25963;42.694;23.600;2023-04-12T00:02:56;94270.63;;;7.77;100.00
40245;BME280;25963;42.694;23.600;2023-04-12T00:05:23;94270.13;;;7.68;100.00
40245;BME280;25963;42.694;23.600;2023-04-12T00:07:54;94268.94;;;7.83;100.00
40245;BME280;25963;42.694;23.600;2023-04-12T00:10:20;94269.09;;;7.88;100.00
40245;BME280;25963;42.694;23.600;2023-04-12T00:12:46;94266.59;;;7.93;100.00
40245;BME280;25963;42.694;23.600;2023-04-12T00:15:12;94219.47;;;7.49;100.00
40245;BME280;25963;42.694;23.600;2023-04-12T00:17:37;94244.47;;;7.70;100.00
40245;BME280;25963;42.694;23.600;2023-04-12T00:20:04;94258.00;;;7.86;100.00
40245;BME280;25963;42.694;23.600;2023-04-12T00:22:30;94251.59;;;7.82;100.00
40245;BME280;25963;42.694;23.600;2023-04-12T00:24:55;94257.34;;;7.90;100.00
40245;BME280;25963;42.694;23.600;2023-04-12T00:27:21;94235.53;;;7.90;100.00
40245;BME280;25963;42.694;23.600;2023-04-12T00:29:46;94241.34;;;7.92;100.00
40245;BME280;25963;42.694;23.600;2023-04-12T00:32:12;94256.25;;;8.10;100.00
40245;BME280;25963;42.694;23.600;2023-04-12T00:34:37;94265.50;;;8.12;100.00
40245;BME280;25963;42.694;23.600;2023-04-12T00:37:03;94261.34;;;7.93;100.00
40245;BME280;25963;42.694;23.600;2023-04-12T00:39:28;94239.44;;;7.99;100.00
40245;BME280;25963;42.694;23.600;2023-04-12T00:41:54;94245.31;;;7.83;100.00
40245;BME280;25963;42.694;23.600;2023-04-12T00:44:21;94261.59;;;8.03;100.00
40245;BME280;25963;42.694;23.600;2023-04-12T00:46:47;94260.31;;;7.94;100.00
40245;BME280;25963;42.694;23.600;2023-04-12T00:49:13;94242.91;;;7.81;100.00
40245;BME280;25963;42.694;23.600;2023-04-12T00:51:40;94243.97;;;7.92;100.00
40245;BME280;25963;42.694;23.600;2023-04-12T00:54:06;94253.81;;;7.96;100.00
40245;BME280;25963;42.694;23.600;2023-04-12T00:56:32;94254.81;;;7.95;100.00
40245;BME280;25963;42.694;23.600;2023-04-12T00:58:58;94237.38;;;8.01;100.00
40245;BME280;25963;42.694;23.600;2023-04-12T01:01:24;94240.03;;;8.13;100.00
40245;BME280;25963;42.694;23.600;2023-04-12T01:03:53;94247.94;;;8.24;100.00
40245;BME280;25963;42.694;23.600;2023-04-12T01:06:58;94244.31;;;8.26;100.00
40245;BME280;25963;42.694;23.600;2023-04-12T01:09:49;94252.88;;;8.21;100.00
40245;BME280;25963;42.694;23.600;2023-04-12T01:15:09;94247.78;;;7.96;100.00
40245;BME280;25963;42.694;23.600;2023-04-12T01:17:55;94235.38;;;8.15;100.00
40245;BME280;25963;42.694;23.600;2023-04-12T01:20:24;94231.38;;;8.12;100.00
40245;BME280;25963;42.694;23.600;2023-04-12T01:23:30;94239.25;;;8.12;100.00
40245;BME280;25963;42.694;23.600;2023-04-12T01:28:37;94241.22;;;8.17;100.00
40245;BME280;25963;42.694;23.600;2023-04-12T01:31:03;94238.78;;;8.15;100.00
40245;BME280;25963;42.694;23.600;2023-04-12T01:33:33;94227.59;;;8.08;100.00
40245;BME280;25963;42.694;23.600;2023-04-12T01:36:05;94220.16;;;8.05;100.00
40245;BME280;25963;42.694;23.600;2023-04-12T01:38:32;94227.16;;;8.11;100.00
40245;BME280;25963;42.694;23.600;2023-04-12T01:40:57;94224.88;;;8.15;100.00
40245;BME280;25963;42.694;23.600;2023-04-12T01:43:23;94215.44;;;7.95;100.00
40245;BME280;25963;42.694;23.600;2023-04-12T01:45:48;94214.09;;;7.93;100.00
40245;BME280;25963;42.694;23.600;2023-04-12T01:48:14;94215.91;;;8.04;100.00
40245;BME280;25963;42.694;23.600;2023-04-12T01:53:44;94224.09;;;7.54;100.00
40245;BME280;25963;42.694;23.600;2023-04-12T01:56:15;94215.09;;;7.62;100.00
40245;BME280;25963;42.694;23.600;2023-04-12T01:58:42;94222.50;;;7.65;100.00
40245;BME280;25963;42.694;23.600;2023-04-12T02:01:10;94220.03;;;7.70;100.00
40245;BME280;25963;42.694;23.600;2023-04-12T02:03:40;94225.03;;;7.90;100.00
40245;BME280;25963;42.694;23.600;2023-04-12T02:06:08;94227.91;;;8.00;100.00
40245;BME280;25963;42.694;23.600;2023-04-12T02:08:34;94208.41;;;7.77;100.00
40245;BME280;25963;42.694;23.600;2023-04-12T02:11:00;94209.28;;;7.90;100.00
40245;BME280;25963;42.694;23.600;2023-04-12T02:13:25;94210.41;;;7.94;100.00
40245;BME280;25963;42.694;23.600;2023-04-12T02:15:53;94222.75;;;7.93;100.00
40245;BME280;25963;42.694;23.600;2023-04-12T02:18:19;94206.97;;;7.82;100.00
40245;BME280;25963;42.694;23.600;2023-04-12T02:20:44;94193.75;;;7.58;100.00
40245;BME280;25963;42.694;23.600;2023-04-12T02:23:11;94206.69;;;7.71;100.00
40245;BME280;25963;42.694;23.600;2023-04-12T02:25:36;94203.56;;;7.63;100.00
40245;BME280;25963;42.694;23.600;2023-04-12T02:28:03;94188.09;;;7.43;100.00
40245;BME280;25963;42.694;23.600;2023-04-12T02:30:29;94209.50;;;7.40;100.00
40245;BME280;25963;42.694;23.600;2023-04-12T02:32:54;94201.94;;;7.31;100.00
40245;BME280;25963;42.694;23.600;2023-04-12T02:35:20;94205.88;;;7.22;100.00
40245;BME280;25963;42.694;23.600;2023-04-12T02:37:47;94226.28;;;7.02;100.00
40245;BME280;25963;42.694;23.600;2023-04-12T02:40:13;94194.44;;;6.80;100.00
40245;BME280;25963;42.694;23.600;2023-04-12T02:42:43;94218.31;;;7.08;100.00
40245;BME280;25963;42.694;23.600;2023-04-12T02:45:09;94214.97;;;7.20;100.00
40245;BME280;25963;42.694;23.600;2023-04-12T02:47:35;94207.03;;;7.26;100.00
40245;BME280;25963;42.694;23.600;2023-04-12T02:50:02;94192.53;;;7.05;100.00
40245;BME280;25963;42.694;23.600;2023-04-12T02:52:28;94188.13;;;7.06;100.00
40245;BME280;25963;42.694;23.600;2023-04-12T02:54:54;94175.13;;;7.11;100.00
40245;BME280;25963;42.694;23.600;2023-04-12T02:57:20;94211.69;;;7.43;100.00
40245;BME280;25963;42.694;23.600;2023-04-12T02:59:46;94203.25;;;7.22;100.00
40245;BME280;25963;42.694;23.600;2023-04-12T03:02:11;94192.19;;;7.02;100.00
40245;BME280;25963;42.694;23.600;2023-04-12T03:04:37;94214.03;;;6.96;100.00
40245;BME280;25963;42.694;23.600;2023-04-12T03:07:04;94203.91;;;6.99;100.00
40245;BME280;25963;42.694;23.600;2023-04-12T03:09:31;94207.63;;;7.28;100.00
40245;BME280;25963;42.694;23.600;2023-04-12T03:11:56;94220.91;;;7.34;100.00
40245;BME280;25963;42.694;23.600;2023-04-12T03:14:22;94187.38;;;7.17;100.00
40245;BME280;25963;42.694;23.600;2023-04-12T03:16:47;94206.03;;;7.27;100.00
40245;BME280;25963;42.694;23.600;2023-04-12T03:19:15;94211.19;;;7.34;100.00
40245;BME280;25963;42.694;23.600;2023-04-12T03:21:41;94212.34;;;7.38;100.00
40245;BME280;25963;42.694;23.600;2023-04-12T03:24:06;94215.66;;;7.34;100.00
40245;BME280;25963;42.694;23.600;2023-04-12T03:26:32;94215.06;;;7.31;100.00
40245;BME280;25963;42.694;23.600;2023-04-12T03:29:00;94195.69;;;7.14;100.00
40245;BME280;25963;42.694;23.600;2023-04-12T03:31:26;94188.59;;;7.15;100.00
40245;BME280;25963;42.694;23.600;2023-04-12T03:33:52;94206.91;;;7.21;100.00
40245;BME280;25963;42.694;23.600;2023-04-12T03:36:18;94220.59;;;7.23;100.00
40245;BME280;25963;42.694;23.600;2023-04-12T03:38:45;94198.22;;;7.02;100.00
40245;BME280;25963;42.694;23.600;2023-04-12T03:41:11;94200.22;;;7.07;100.00
40245;BME280;25963;42.694;23.600;2023-04-12T03:43:36;94222.94;;;6.95;100.00
40245;BME280;25963;42.694;23.600;2023-04-12T03:46:03;94214.09;;;7.26;100.00
40245;BME280;25963;42.694;23.600;2023-04-12T03:48:28;94217.25;;;7.35;100.00
40245;BME280;25963;42.694;23.600;2023-04-12T03:50:54;94222.75;;;7.45;100.00
40245;BME280;25963;42.694;23.600;2023-04-12T03:53:20;94205.34;;;7.32;100.00
40245;BME280;25963;42.694;23.600;2023-04-12T03:55:45;94240.28;;;7.51;100.00
40245;BME280;25963;42.694;23.600;2023-04-12T03:58:11;94240.13;;;7.46;100.00
40245;BME280;25963;42.694;23.600;2023-04-12T04:00:38;94228.00;;;7.45;100.00
40245;BME280;25963;42.694;23.600;2023-04-12T04:03:04;94237.63;;;7.69;100.00
40245;BME280;25963;42.694;23.600;2023-04-12T04:05:30;94237.16;;;7.72;100.00
40245;BME280;25963;42.694;23.600;2023-04-12T04:07:56;94230.63;;;7.63;100.00
40245;BME280;25963;42.694;23.600;2023-04-12T04:10:29;94217.75;;;7.73;100.00
40245;BME280;25963;42.694;23.600;2023-04-12T04:12:55;94226.13;;;7.52;100.00
40245;BME280;25963;42.694;23.600;2023-04-12T04:15:20;94231.59;;;7.81;100.00
40245;BME280;25963;42.694;23.600;2023-04-12T04:17:46;94233.09;;;7.58;100.00
40245;BME280;25963;42.694;23.600;2023-04-12T04:20:13;94212.59;;;7.37;100.00
40245;BME280;25963;42.694;23.600;2023-04-12T04:22:39;94202.47;;;7.22;100.00
40245;BME280;25963;42.694;23.600;2023-04-12T04:25:06;94216.34;;;7.41;100.00
40245;BME280;25963;42.694;23.600;2023-04-12T04:27:32;94220.72;;;7.47;100.00
40245;BME280;25963;42.694;23.600;2023-04-12T04:30:01;94226.25;;;7.57;100.00
40245;BME280;25963;42.694;23.600;2023-04-12T04:32:29;94219.59;;;7.73;100.00
40245;BME280;25963;42.694;23.600;2023-04-12T04:34:55;94186.00;;;7.63;100.00
40245;BME280;25963;42.694;23.600;2023-04-12T04:37:29;94214.34;;;7.73;100.00
40245;BME280;25963;42.694;23.600;2023-04-12T04:40:01;94235.69;;;7.76;100.00
40245;BME280;25963;42.694;23.600;2023-04-12T04:42:32;94203.97;;;7.78;100.00
40245;BME280;25963;42.694;23.600;2023-04-12T04:44:58;94237.50;;;8.06;100.00
40245;BME280;25963;42.694;23.600;2023-04-12T04:47:37;94243.16;;;8.21;100.00
40245;BME280;25963;42.694;23.600;2023-04-12T04:50:03;94201.31;;;8.08;100.00
40245;BME280;25963;42.694;23.600;2023-04-12T04:52:28;94239.88;;;8.38;100.00
40245;BME280;25963;42.694;23.600;2023-04-12T04:54:53;94236.84;;;8.64;100.00
40245;BME280;25963;42.694;23.600;2023-04-12T04:57:24;94244.84;;;9.28;100.00
40245;BME280;25963;42.694;23.600;2023-04-12T04:59:51;94252.31;;;9.60;100.00
40245;BME280;25963;42.694;23.600;2023-04-12T05:02:16;94256.84;;;9.88;100.00
40245;BME280;25963;42.694;23.600;2023-04-12T05:04:42;94254.66;;;10.14;100.00
40245;BME280;25963;42.694;23.600;2023-04-12T05:07:07;94270.97;;;10.73;100.00
40245;BME280;25963;42.694;23.600;2023-04-12T05:09:32;94288.84;;;11.38;98.95
40245;BME280;25963;42.694;23.600;2023-04-12T05:11:58;94284.44;;;11.44;97.56
40245;BME280;25963;42.694;23.600;2023-04-12T05:14:23;94283.78;;;10.98;99.03
40245;BME280;25963;42.694;23.600;2023-04-12T05:16:49;94287.22;;;10.99;100.00
40245;BME280;25963;42.694;23.600;2023-04-12T05:19:15;94265.94;;;10.55;100.00
40245;BME280;25963;42.694;23.600;2023-04-12T05:21:40;94285.53;;;10.92;100.00
40245;BME280;25963;42.694;23.600;2023-04-12T05:24:06;94290.66;;;11.16;99.20
40245;BME280;25963;42.694;23.600;2023-04-12T05:26:31;94298.31;;;11.01;98.45
40245;BME280;25963;42.694;23.600;2023-04-12T05:28:58;94292.03;;;11.02;99.12
40245;BME280;25963;42.694;23.600;2023-04-12T05:31:25;94300.78;;;10.57;100.00
40245;BME280;25963;42.694;23.600;2023-04-12T05:33:52;94308.97;;;10.43;100.00
40245;BME280;25963;42.694;23.600;2023-04-12T05:36:18;94292.53;;;10.24;100.00
40245;BME280;25963;42.694;23.600;2023-04-12T05:38:44;94304.25;;;10.17;99.93
40245;BME280;25963;42.694;23.600;2023-04-12T05:41:10;94304.25;;;10.17;100.00
40245;BME280;25963;42.694;23.600;2023-04-12T05:43:36;94295.59;;;10.04;100.00
40245;BME280;25963;42.694;23.600;2023-04-12T05:46:02;94307.47;;;10.19;100.00
40245;BME280;25963;42.694;23.600;2023-04-12T05:48:28;94318.63;;;10.09;100.00
40245;BME280;25963;42.694;23.600;2023-04-12T05:50:53;94321.19;;;9.92;100.00
40245;BME280;25963;42.694;23.600;2023-04-12T05:53:20;94311.09;;;9.89;100.00
40245;BME280;25963;42.694;23.600;2023-04-12T05:55:45;94313.94;;;10.11;100.00
40245;BME280;25963;42.694;23.600;2023-04-12T05:58:11;94303.69;;;9.74;100.00
40245;BME280;25963;42.694;23.600;2023-04-12T06:00:38;94301.25;;;9.96;100.00
40245;BME280;25963;42.694;23.600;2023-04-12T06:03:07;94304.09;;;9.95;100.00
40245;BME280;25963;42.694;23.600;2023-04-12T06:05:33;94289.16;;;10.12;100.00
40245;BME280;25963;42.694;23.600;2023-04-12T06:07:59;94301.63;;;9.88;100.00
40245;BME280;25963;42.694;23.600;2023-04-12T06:10:25;94302.00;;;10.09;100.00
40245;BME280;25963;42.694;23.600;2023-04-12T06:12:50;94293.81;;;10.22;100.00
40245;BME280;25963;42.694;23.600;2023-04-12T06:15:16;94276.88;;;10.18;99.51
40245;BME280;25963;42.694;23.600;2023-04-12T06:17:41;94300.78;;;9.99;98.90
40245;BME280;25963;42.694;23.600;2023-04-12T06:20:08;94300.44;;;10.36;98.82
40245;BME280;25963;42.694;23.600;2023-04-12T06:22:34;94316.41;;;10.46;96.29
40245;BME280;25963;42.694;23.600;2023-04-12T06:25:00;94322.31;;;10.37;94.41
40245;BME280;25963;42.694;23.600;2023-04-12T06:27:25;94323.84;;;10.21;95.83
40245;BME280;25963;42.694;23.600;2023-04-12T06:29:51;94333.03;;;10.18;95.81
40245;BME280;25963;42.694;23.600;2023-04-12T06:32:17;94334.59;;;10.31;94.16
40245;BME280;25963;42.694;23.600;2023-04-12T06:34:42;94315.59;;;10.29;95.50
40245;BME280;25963;42.694;23.600;2023-04-12T06:37:08;94304.91;;;10.52;94.24
40245;BME280;25963;42.694;23.600;2023-04-12T06:39:33;94304.78;;;10.76;96.17
40245;BME280;25963;42.694;23.600;2023-04-12T06:41:59;94301.28;;;10.70;95.14
40245;BME280;25963;42.694;23.600;2023-04-12T06:44:25;94311.97;;;10.64;92.80
40245;BME280;25963;42.694;23.600;2023-04-12T06:46:52;94299.97;;;10.39;91.72
40245;BME280;25963;42.694;23.600;2023-04-12T06:49:17;94312.41;;;10.27;92.45
40245;BME280;25963;42.694;23.600;2023-04-12T06:51:43;94320.09;;;10.05;92.50
40245;BME280;25963;42.694;23.600;2023-04-12T06:54:08;94316.91;;;10.03;93.18
40245;BME280;25963;42.694;23.600;2023-04-12T06:56:36;94315.22;;;10.25;91.87
40245;BME280;25963;42.694;23.600;2023-04-12T06:59:01;94295.56;;;10.16;90.28
40245;BME280;25963;42.694;23.600;2023-04-12T07:01:27;94308.28;;;10.07;89.97
40245;BME280;25963;42.694;23.600;2023-04-12T07:03:52;94312.63;;;10.14;90.25
40245;BME280;25963;42.694;23.600;2023-04-12T07:06:18;94306.41;;;10.20;91.54
40245;BME280;25963;42.694;23.600;2023-04-12T07:08:43;94329.13;;;10.21;88.27
40245;BME280;25963;42.694;23.600;2023-04-12T07:11:09;94315.34;;;10.31;89.82
40245;BME280;25963;42.694;23.600;2023-04-12T07:13:34;94327.50;;;10.20;85.50
40245;BME280;25963;42.694;23.600;2023-04-12T07:16:00;94308.88;;;10.50;87.81
40245;BME280;25963;42.694;23.600;2023-04-12T07:18:26;94320.47;;;10.66;86.57
40245;BME280;25963;42.694;23.600;2023-04-12T07:20:53;94313.56;;;10.65;84.50
40245;BME280;25963;42.694;23.600;2023-04-12T07:23:19;94313.28;;;10.78;84.67
40245;BME280;25963;42.694;23.600;2023-04-12T07:25:45;94318.97;;;10.87;84.30
40245;BME280;25963;42.694;23.600;2023-04-12T07:28:10;94306.16;;;11.12;85.36
40245;BME280;25963;42.694;23.600;2023-04-12T07:30:38;94303.31;;;11.53;81.74
40245;BME280;25963;42.694;23.600;2023-04-12T07:33:03;94294.09;;;11.94;80.89
40245;BME280;25963;42.694;23.600;2023-04-12T07:35:32;94287.19;;;12.15;79.38
40245;BME280;25963;42.694;23.600;2023-04-12T07:37:58;94293.78;;;12.40;75.16
40245;BME280;25963;42.694;23.600;2023-04-12T07:40:24;94286.88;;;12.98;75.17
40245;BME280;25963;42.694;23.600;2023-04-12T07:42:49;94284.50;;;13.34;69.75
40245;BME280;25963;42.694;23.600;2023-04-12T07:45:15;94285.84;;;12.99;70.51
40245;BME280;25963;42.694;23.600;2023-04-12T07:47:41;94270.44;;;13.28;68.71
40245;BME280;25963;42.694;23.600;2023-04-12T07:50:07;94276.75;;;13.69;68.46
40245;BME280;25963;42.694;23.600;2023-04-12T07:52:32;94267.97;;;13.16;63.28
40245;BME280;25963;42.694;23.600;2023-04-12T07:54:58;94285.34;;;12.43;66.62
40245;BME280;25963;42.694;23.600;2023-04-12T07:57:23;94284.75;;;12.36;68.77
40245;BME280;25963;42.694;23.600;2023-04-12T07:59:49;94286.63;;;12.13;70.31
40245;BME280;25963;42.694;23.600;2023-04-12T08:02:15;94278.75;;;11.96;69.12
40245;BME280;25963;42.694;23.600;2023-04-12T08:04:52;94268.47;;;12.49;70.11
40245;BME280;25963;42.694;23.600;2023-04-12T08:07:18;94263.53;;;12.90;70.57
40245;BME280;25963;42.694;23.600;2023-04-12T08:09:43;94269.97;;;13.04;67.78
40245;BME280;25963;42.694;23.600;2023-04-12T08:12:09;94258.25;;;13.27;65.41
40245;BME280;25963;42.694;23.600;2023-04-12T08:14:35;94253.59;;;13.44;68.19
40245;BME280;25963;42.694;23.600;2023-04-12T08:17:01;94253.78;;;13.33;62.60
40245;BME280;25963;42.694;23.600;2023-04-12T08:19:26;94253.94;;;13.21;64.38
40245;BME280;25963;42.694;23.600;2023-04-12T08:21:52;94239.34;;;13.18;62.89
40245;BME280;25963;42.694;23.600;2023-04-12T08:24:17;94246.66;;;13.38;60.45
40245;BME280;25963;42.694;23.600;2023-04-12T08:26:44;94241.78;;;13.67;60.85
40245;BME280;25963;42.694;23.600;2023-04-12T08:29:10;94237.53;;;13.72;60.53
40245;BME280;25963;42.694;23.600;2023-04-12T08:31:35;94236.00;;;13.81;62.98
40245;BME280;25963;42.694;23.600;2023-04-12T08:34:01;94238.72;;;14.01;58.50
40245;BME280;25963;42.694;23.600;2023-04-12T08:36:26;94226.00;;;14.08;62.78
40245;BME280;25963;42.694;23.600;2023-04-12T08:38:52;94219.41;;;14.21;60.10
40245;BME280;25963;42.694;23.600;2023-04-12T08:41:20;94219.16;;;14.38;57.86
40245;BME280;25963;42.694;23.600;2023-04-12T08:43:46;94219.63;;;14.04;56.09
40245;BME280;25963;42.694;23.600;2023-04-12T08:46:13;94217.22;;;13.98;56.95
40245;BME280;25963;42.694;23.600;2023-04-12T08:48:49;94217.47;;;13.96;59.20
40245;BME280;25963;42.694;23.600;2023-04-12T08:51:19;94227.31;;;14.06;56.34
40245;BME280;25963;42.694;23.600;2023-04-12T08:53:45;94218.06;;;14.13;57.36
40245;BME280;25963;42.694;23.600;2023-04-12T08:56:11;94230.53;;;14.23;53.66
40245;BME280;25963;42.694;23.600;2023-04-12T08:58:39;94200.31;;;14.19;56.75
40245;BME280;25963;42.694;23.600;2023-04-12T09:01:12;94201.09;;;14.09;54.14
40245;BME280;25963;42.694;23.600;2023-04-12T09:03:39;94222.06;;;14.42;50.05
40245;BME280;25963;42.694;23.600;2023-04-12T09:06:05;94214.16;;;14.62;50.32
40245;BME280;25963;42.694;23.600;2023-04-12T09:08:31;94201.44;;;14.54;50.91
40245;BME280;25963;42.694;23.600;2023-04-12T09:10:56;94206.41;;;14.35;48.79
40245;BME280;25963;42.694;23.600;2023-04-12T09:13:32;94188.69;;;14.61;50.10
40245;BME280;25963;42.694;23.600;2023-04-12T09:15:59;94179.38;;;14.48;48.91
40245;BME280;25963;42.694;23.600;2023-04-12T09:18:24;94201.16;;;14.66;48.88
40245;BME280;25963;42.694;23.600;2023-04-12T09:21:05;94183.88;;;14.99;51.33
40245;BME280;25963;42.694;23.600;2023-04-12T09:23:31;94181.53;;;14.72;48.83
40245;BME280;25963;42.694;23.600;2023-04-12T09:25:56;94172.47;;;14.47;48.78
40245;BME280;25963;42.694;23.600;2023-04-12T09:28:25;94179.94;;;14.81;52.14
40245;BME280;25963;42.694;23.600;2023-04-12T09:30:52;94150.19;;;14.38;49.50
40245;BME280;25963;42.694;23.600;2023-04-12T09:33:19;94161.34;;;14.81;48.85
40245;BME280;25963;42.694;23.600;2023-04-12T09:35:45;94178.28;;;14.95;45.78
40245;BME280;25963;42.694;23.600;2023-04-12T09:38:10;94166.66;;;14.81;44.85
40245;BME280;25963;42.694;23.600;2023-04-12T09:40:36;94161.25;;;15.22;49.09
40245;BME280;25963;42.694;23.600;2023-04-12T09:43:02;94159.41;;;15.17;48.83
40245;BME280;25963;42.694;23.600;2023-04-12T09:45:28;94151.72;;;15.11;44.25
40245;BME280;25963;42.694;23.600;2023-04-12T09:47:55;94143.06;;;15.55;45.61
40245;BME280;25963;42.694;23.600;2023-04-12T09:50:28;94150.19;;;15.74;43.26
40245;BME280;25963;42.694;23.600;2023-04-12T09:52:57;94143.88;;;16.05;46.15
40245;BME280;25963;42.694;23.600;2023-04-12T09:55:27;94122.16;;;16.32;48.96
40245;BME280;25963;42.694;23.600;2023-04-12T09:57:54;94133.69;;;16.17;41.94
40245;BME280;25963;42.694;23.600;2023-04-12T10:00:21;94127.56;;;15.77;40.71
40245;BME280;25963;42.694;23.600;2023-04-12T10:02:49;94114.28;;;15.72;42.63
40245;BME280;25963;42.694;23.600;2023-04-12T10:05:17;94101.00;;;15.67;43.31
40245;BME280;25963;42.694;23.600;2023-04-12T10:07:43;94112.72;;;15.71;40.60
40245;BME280;25963;42.694;23.600;2023-04-12T10:10:10;94095.19;;;15.60;42.92
40245;BME280;25963;42.694;23.600;2023-04-12T10:12:38;94085.03;;;15.77;41.08
40245;BME280;25963;42.694;23.600;2023-04-12T10:15:04;94088.00;;;16.10;42.06
40245;BME280;25963;42.694;23.600;2023-04-12T10:17:44;94091.00;;;15.98;42.02
40245;BME280;25963;42.694;23.600;2023-04-12T10:20:13;94095.00;;;15.95;39.01
40245;BME280;25963;42.694;23.600;2023-04-12T10:22:51;94077.09;;;16.06;41.06
40245;BME280;25963;42.694;23.600;2023-04-12T10:25:22;94084.00;;;16.12;39.03
40245;BME280;25963;42.694;23.600;2023-04-12T10:27:48;94085.53;;;16.18;38.53
40245;BME280;25963;42.694;23.600;2023-04-12T10:30:27;94082.91;;;15.74;37.88
40245;BME280;25963;42.694;23.600;2023-04-12T10:35:28;94092.75;;;16.13;39.06
40245;BME280;25963;42.694;23.600;2023-04-12T10:38:03;94057.00;;;16.24;39.64
40245;BME280;25963;42.694;23.600;2023-04-12T10:40:30;94079.84;;;16.59;39.81
40245;BME280;25963;42.694;23.600;2023-04-12T10:45:43;94059.34;;;17.13;35.55
40245;BME280;25963;42.694;23.600;2023-04-12T10:51:15;94064.00;;;17.02;36.32
40245;BME280;25963;42.694;23.600;2023-04-12T10:53:52;94061.88;;;16.75;33.01
40245;BME280;25963;42.694;23.600;2023-04-12T10:58:59;94065.28;;;16.23;32.46
40245;BME280;25963;42.694;23.600;2023-04-12T11:01:26;94064.94;;;15.50;33.47
40245;BME280;25963;42.694;23.600;2023-04-12T11:04:14;94066.75;;;15.11;35.14
40245;BME280;25963;42.694;23.600;2023-04-12T11:06:57;94057.84;;;15.85;35.37
40245;BME280;25963;42.694;23.600;2023-04-12T11:19:45;94052.59;;;16.97;33.71
40245;BME280;25963;42.694;23.600;2023-04-12T11:22:12;94063.75;;;16.99;33.33
40245;BME280;25963;42.694;23.600;2023-04-12T11:24:49;94068.50;;;16.78;33.29
40245;BME280;25963;42.694;23.600;2023-04-12T11:27:17;94061.09;;;16.99;35.66
40245;BME280;25963;42.694;23.600;2023-04-12T11:29:43;94063.25;;;16.97;34.79
40245;BME280;25963;42.694;23.600;2023-04-12T11:32:13;94069.72;;;16.91;30.37
40245;BME280;25963;42.694;23.600;2023-04-12T11:34:40;94056.06;;;16.97;33.14
40245;BME280;25963;42.694;23.600;2023-04-12T11:37:06;94059.16;;;16.80;31.97
40245;BME280;25963;42.694;23.600;2023-04-12T11:39:40;94060.38;;;16.93;30.15
40245;BME280;25963;42.694;23.600;2023-04-12T11:42:14;94062.81;;;16.31;31.24
40245;BME280;25963;42.694;23.600;2023-04-12T11:44:42;94072.78;;;16.15;31.39
40245;BME280;25963;42.694;23.600;2023-04-12T11:47:19;94059.16;;;15.88;33.37
40245;BME280;25963;42.694;23.600;2023-04-12T11:49:47;94065.28;;;16.23;33.26
40245;BME280;25963;42.694;23.600;2023-04-12T11:52:14;94055.81;;;16.70;34.83
40245;BME280;25963;42.694;23.600;2023-04-12T11:54:47;94065.59;;;16.74;31.87
40245;BME280;25963;42.694;23.600;2023-04-12T11:57:14;94065.59;;;16.45;32.14
40245;BME280;25963;42.694;23.600;2023-04-12T11:59:43;94061.56;;;16.82;31.16
40245;BME280;25963;42.694;23.600;2023-04-12T12:02:09;94059.91;;;16.28;29.66
40245;BME280;25963;42.694;23.600;2023-04-12T12:04:36;94079.56;;;16.32;31.47
40245;BME280;25963;42.694;23.600;2023-04-12T12:07:02;94067.63;;;16.87;32.13
40245;BME280;25963;42.694;23.600;2023-04-12T12:09:28;94064.16;;;17.11;32.98
40245;BME280;25963;42.694;23.600;2023-04-12T12:11:54;94063.03;;;17.17;31.51
40245;BME280;25963;42.694;23.600;2023-04-12T12:14:22;94084.00;;;16.76;31.78
40245;BME280;25963;42.694;23.600;2023-04-12T12:16:52;94062.53;;;16.62;30.00
40245;BME280;25963;42.694;23.600;2023-04-12T12:19:28;94059.28;;;17.18;32.96
40245;BME280;25963;42.694;23.600;2023-04-12T12:22:21;94071.25;;;16.97;30.27
40245;BME280;25963;42.694;23.600;2023-04-12T12:24:56;94065.38;;;16.71;30.25
40245;BME280;25963;42.694;23.600;2023-04-12T12:27:23;94068.28;;;16.11;30.59
40245;BME280;25963;42.694;23.600;2023-04-12T12:29:51;94064.66;;;16.60;30.88
40245;BME280;25963;42.694;23.600;2023-04-12T12:32:18;94063.13;;;16.83;29.69
40245;BME280;25963;42.694;23.600;2023-04-12T12:34:54;94063.94;;;17.07;28.38
40245;BME280;25963;42.694;23.600;2023-04-12T12:37:24;94047.38;;;17.10;30.17
40245;BME280;25963;42.694;23.600;2023-04-12T12:40:04;94070.94;;;17.22;29.02
40245;BME280;25963;42.694;23.600;2023-04-12T12:45:10;94067.84;;;17.15;28.73
40245;BME280;25963;42.694;23.600;2023-04-12T12:47:56;94061.44;;;17.16;30.98
40245;BME280;25963;42.694;23.600;2023-04-12T12:50:24;94072.44;;;17.09;29.15
40245;BME280;25963;42.694;23.600;2023-04-12T12:52:51;94080.78;;;16.74;32.79
40245;BME280;25963;42.694;23.600;2023-04-12T12:55:17;94073.41;;;16.36;31.78
40245;BME280;25963;42.694;23.600;2023-04-12T12:57:44;94073.03;;;16.48;31.30
40245;BME280;25963;42.694;23.600;2023-04-12T13:00:11;94065.84;;;16.49;30.57
40245;BME280;25963;42.694;23.600;2023-04-12T13:02:38;94069.69;;;16.37;30.15
40245;BME280;25963;42.694;23.600;2023-04-12T13:05:04;94074.81;;;16.58;30.27
40245;BME280;25963;42.694;23.600;2023-04-12T13:07:30;94068.25;;;16.79;31.48
40245;BME280;25963;42.694;23.600;2023-04-12T13:09:55;94058.28;;;16.61;30.17
40245;BME280;25963;42.694;23.600;2023-04-12T13:12:21;94062.25;;;16.63;30.12
40245;BME280;25963;42.694;23.600;2023-04-12T13:14:47;94077.19;;;16.88;29.77
40245;BME280;25963;42.694;23.600;2023-04-12T13:17:13;94054.84;;;16.60;28.68
40245;BME280;25963;42.694;23.600;2023-04-12T13:19:39;94068.38;;;16.93;31.02
40245;BME280;25963;42.694;23.600;2023-04-12T13:22:05;94074.91;;;16.77;28.80
40245;BME280;25963;42.694;23.600;2023-04-12T13:24:32;94076.25;;;16.74;28.88